sensor_id;sensor_type;location;lat;lon;timestamp;P1;durP1;ratioP1;P2;durP2;ratioP2
62362;SDS011;48396;48.426;1.500;2023-06-26T00:00:52;6.97;;;3.60;;
62362;SDS011;48396;48.426;1.500;2023-06-26T00:03:18;8.43;;;3.53;;
62362;SDS011;48396;48.426;1.500;2023-06-26T00:05:44;7.95;;;3.50;;
62362;SDS011;48396;48.426;1.500;2023-06-26T00:08:09;6.90;;;3.42;;
62362;SDS011;48396;48.426;1.500;2023-06-26T00:10:35;7.05;;;3.40;;
62362;SDS011;48396;48.426;1.500;2023-06-26T00:13:00;5.45;;;3.03;;
62362;SDS011;48396;48.426;1.500;2023-06-26T00:15:27;5.05;;;3.05;;
62362;SDS011;48396;48.426;1.500;2023-06-26T00:18:11;7.53;;;3.20;;
62362;SDS011;48396;48.426;1.500;2023-06-26T00:20:36;5.00;;;3.00;;
62362;SDS011;48396;48.426;1.500;2023-06-26T00:23:02;6.25;;;3.35;;
62362;SDS011;48396;48.426;1.500;2023-06-26T00:25:32;5.05;;;2.95;;
62362;SDS011;48396;48.426;1.500;2023-06-26T00:27:58;8.13;;;3.15;;
62362;SDS011;48396;48.426;1.500;2023-06-26T00:30:24;8.20;;;3.28;;
62362;SDS011;48396;48.426;1.500;2023-06-26T00:32:49;5.75;;;2.80;;
62362;SDS011;48396;48.426;1.500;2023-06-26T00:35:16;8.07;;;2.97;;
62362;SDS011;48396;48.426;1.500;2023-06-26T00:37:41;4.82;;;2.50;;
62362;SDS011;48396;48.426;1.500;2023-06-26T00:40:07;6.03;;;2.97;;
62362;SDS011;48396;48.426;1.500;2023-06-26T00:42:34;8.65;;;2.85;;
62362;SDS011;48396;48.426;1.500;2023-06-26T00:44:59;3.33;;;2.08;;
62362;SDS011;48396;48.426;1.500;2023-06-26T00:47:25;4.53;;;2.30;;
62362;SDS011;48396;48.426;1.500;2023-06-26T00:49:52;4.00;;;2.10;;
62362;SDS011;48396;48.426;1.500;2023-06-26T00:52:19;5.55;;;2.30;;
62362;SDS011;48396;48.426;1.500;2023-06-26T00:54:45;5.93;;;2.58;;
62362;SDS011;48396;48.426;1.500;2023-06-26T00:57:11;4.22;;;2.33;;
62362;SDS011;48396;48.426;1.500;2023-06-26T00:59:36;5.70;;;1.98;;
62362;SDS011;48396;48.426;1.500;2023-06-26T01:02:03;6.70;;;2.45;;
62362;SDS011;48396;48.426;1.500;2023-06-26T01:04:29;6.10;;;2.33;;
62362;SDS011;48396;48.426;1.500;2023-06-26T01:06:57;5.30;;;2.42;;
62362;SDS011;48396;48.426;1.500;2023-06-26T01:09:24;6.88;;;2.50;;
62362;SDS011;48396;48.426;1.500;2023-06-26T01:11:50;4.13;;;2.17;;
62362;SDS011;48396;48.426;1.500;2023-06-26T01:14:16;6.53;;;2.70;;
62362;SDS011;48396;48.426;1.500;2023-06-26T01:16:42;5.10;;;1.95;;
62362;SDS011;48396;48.426;1.500;2023-06-26T01:19:13;3.88;;;2.17;;
62362;SDS011;48396;48.426;1.500;2023-06-26T01:24:39;5.53;;;2.10;;
62362;SDS011;48396;48.426;1.500;2023-06-26T01:27:13;3.85;;;2.00;;
62362;SDS011;48396;48.426;1.500;2023-06-26T01:29:39;6.95;;;2.30;;
62362;SDS011;48396;48.426;1.500;2023-06-26T01:32:06;4.43;;;1.75;;
62362;SDS011;48396;48.426;1.500;2023-06-26T01:34:33;4.18;;;1.52;;
62362;SDS011;48396;48.426;1.500;2023-06-26T01:36:58;5.15;;;1.80;;
62362;SDS011;48396;48.426;1.500;2023-06-26T01:39:24;6.35;;;2.17;;
62362;SDS011;48396;48.426;1.500;2023-06-26T01:41:49;5.97;;;2.40;;
62362;SDS011;48396;48.426;1.500;2023-06-26T01:44:23;4.43;;;1.63;;
62362;SDS011;48396;48.426;1.500;2023-06-26T01:47:01;4.55;;;1.75;;
62362;SDS011;48396;48.426;1.500;2023-06-26T01:55:28;4.68;;;1.60;;
62362;SDS011;48396;48.426;1.500;2023-06-26T01:57:35;5.55;;;1.55;;
62362;SDS011;48396;48.426;1.500;2023-06-26T02:00:02;4.03;;;1.98;;
62362;SDS011;48396;48.426;1.500;2023-06-26T02:02:29;4.43;;;2.13;;
62362;SDS011;48396;48.426;1.500;2023-06-26T02:04:54;5.53;;;1.85;;
62362;SDS011;48396;48.426;1.500;2023-06-26T02:07:20;5.20;;;1.50;;
62362;SDS011;48396;48.426;1.500;2023-06-26T02:09:46;4.28;;;1.58;;
62362;SDS011;48396;48.426;1.500;2023-06-26T02:12:11;4.30;;;1.60;;
62362;SDS011;48396;48.426;1.500;2023-06-26T02:14:37;5.68;;;1.52;;
62362;SDS011;48396;48.426;1.500;2023-06-26T02:17:02;5.25;;;1.55;;
62362;SDS011;48396;48.426;1.500;2023-06-26T02:19:29;6.55;;;1.60;;
62362;SDS011;48396;48.426;1.500;2023-06-26T02:21:54;4.88;;;1.95;;
62362;SDS011;48396;48.426;1.500;2023-06-26T02:24:20;3.17;;;1.70;;
62362;SDS011;48396;48.426;1.500;2023-06-26T02:26:45;8.95;;;2.13;;
62362;SDS011;48396;48.426;1.500;2023-06-26T02:29:11;3.58;;;1.50;;
62362;SDS011;48396;48.426;1.500;2023-06-26T02:31:37;6.72;;;1.77;;
62362;SDS011;48396;48.426;1.500;2023-06-26T02:34:03;5.35;;;1.67;;
62362;SDS011;48396;48.426;1.500;2023-06-26T02:36:29;3.92;;;1.50;;
62362;SDS011;48396;48.426;1.500;2023-06-26T02:38:55;2.97;;;1.42;;
62362;SDS011;48396;48.426;1.500;2023-06-26T02:41:20;5.20;;;1.67;;
62362;SDS011;48396;48.426;1.500;2023-06-26T02:43:46;7.35;;;1.73;;
62362;SDS011;48396;48.426;1.500;2023-06-26T02:46:11;5.32;;;1.52;;
62362;SDS011;48396;48.426;1.500;2023-06-26T02:48:37;10.02;;;1.88;;
62362;SDS011;48396;48.426;1.500;2023-06-26T02:51:02;3.95;;;1.58;;
62362;SDS011;48396;48.426;1.500;2023-06-26T02:53:28;3.28;;;1.58;;
62362;SDS011;48396;48.426;1.500;2023-06-26T02:55:53;4.38;;;1.30;;
62362;SDS011;48396;48.426;1.500;2023-06-26T02:58:19;7.10;;;1.88;;
62362;SDS011;48396;48.426;1.500;2023-06-26T03:00:45;3.90;;;1.55;;
62362;SDS011;48396;48.426;1.500;2023-06-26T03:03:11;4.30;;;1.42;;
62362;SDS011;48396;48.426;1.500;2023-06-26T03:05:38;6.18;;;1.67;;
62362;SDS011;48396;48.426;1.500;2023-06-26T03:08:03;6.25;;;1.70;;
62362;SDS011;48396;48.426;1.500;2023-06-26T03:10:29;3.65;;;1.33;;
62362;SDS011;48396;48.426;1.500;2023-06-26T03:12:54;3.83;;;1.60;;
62362;SDS011;48396;48.426;1.500;2023-06-26T03:15:20;3.28;;;1.45;;
62362;SDS011;48396;48.426;1.500;2023-06-26T03:17:46;5.63;;;1.48;;
62362;SDS011;48396;48.426;1.500;2023-06-26T03:20:11;7.05;;;1.63;;
62362;SDS011;48396;48.426;1.500;2023-06-26T03:22:37;5.63;;;2.00;;
62362;SDS011;48396;48.426;1.500;2023-06-26T03:25:02;7.07;;;1.70;;
62362;SDS011;48396;48.426;1.500;2023-06-26T03:27:29;6.43;;;1.98;;
62362;SDS011;48396;48.426;1.500;2023-06-26T03:29:55;5.50;;;1.92;;
62362;SDS011;48396;48.426;1.500;2023-06-26T03:32:21;6.28;;;2.05;;
62362;SDS011;48396;48.426;1.500;2023-06-26T03:34:46;4.50;;;1.60;;
62362;SDS011;48396;48.426;1.500;2023-06-26T03:37:12;6.50;;;1.50;;
62362;SDS011;48396;48.426;1.500;2023-06-26T03:39:38;5.15;;;2.25;;
62362;SDS011;48396;48.426;1.500;2023-06-26T03:42:03;9.10;;;1.88;;
62362;SDS011;48396;48.426;1.500;2023-06-26T03:44:29;5.47;;;1.48;;
62362;SDS011;48396;48.426;1.500;2023-06-26T03:46:55;4.63;;;1.80;;
62362;SDS011;48396;48.426;1.500;2023-06-26T03:49:20;5.32;;;1.33;;
62362;SDS011;48396;48.426;1.500;2023-06-26T03:51:46;4.45;;;1.60;;
62362;SDS011;48396;48.426;1.500;2023-06-26T03:54:12;4.53;;;1.52;;
62362;SDS011;48396;48.426;1.500;2023-06-26T03:56:37;3.88;;;1.35;;
62362;SDS011;48396;48.426;1.500;2023-06-26T03:59:03;3.72;;;1.58;;
62362;SDS011;48396;48.426;1.500;2023-06-26T04:01:28;4.25;;;1.88;;
62362;SDS011;48396;48.426;1.500;2023-06-26T04:03:54;2.08;;;1.10;;
62362;SDS011;48396;48.426;1.500;2023-06-26T04:06:20;5.75;;;1.88;;
62362;SDS011;48396;48.426;1.500;2023-06-26T04:08:45;6.45;;;1.90;;
62362;SDS011;48396;48.426;1.500;2023-06-26T04:11:11;6.28;;;1.92;;
62362;SDS011;48396;48.426;1.500;2023-06-26T04:13:36;6.70;;;2.00;;
62362;SDS011;48396;48.426;1.500;2023-06-26T04:16:02;5.03;;;2.00;;
62362;SDS011;48396;48.426;1.500;2023-06-26T04:18:28;12.18;;;2.55;;
62362;SDS011;48396;48.426;1.500;2023-06-26T04:23:50;9.40;;;2.35;;
62362;SDS011;48396;48.426;1.500;2023-06-26T04:26:16;10.10;;;2.55;;
62362;SDS011;48396;48.426;1.500;2023-06-26T04:28:41;9.20;;;2.28;;
62362;SDS011;48396;48.426;1.500;2023-06-26T04:31:07;6.55;;;2.15;;
62362;SDS011;48396;48.426;1.500;2023-06-26T04:33:34;11.63;;;2.40;;
62362;SDS011;48396;48.426;1.500;2023-06-26T04:36:05;8.30;;;2.00;;
62362;SDS011;48396;48.426;1.500;2023-06-26T04:38:32;4.85;;;1.85;;
62362;SDS011;48396;48.426;1.500;2023-06-26T04:40:58;6.10;;;2.00;;
62362;SDS011;48396;48.426;1.500;2023-06-26T04:43:24;7.28;;;2.10;;
62362;SDS011;48396;48.426;1.500;2023-06-26T04:45:50;10.00;;;2.63;;
62362;SDS011;48396;48.426;1.500;2023-06-26T04:48:15;10.18;;;2.40;;
62362;SDS011;48396;48.426;1.500;2023-06-26T04:50:41;5.53;;;2.08;;
62362;SDS011;48396;48.426;1.500;2023-06-26T04:53:07;6.72;;;2.22;;
62362;SDS011;48396;48.426;1.500;2023-06-26T04:55:32;6.53;;;1.88;;
62362;SDS011;48396;48.426;1.500;2023-06-26T04:57:58;7.40;;;2.40;;
62362;SDS011;48396;48.426;1.500;2023-06-26T05:00:24;5.88;;;2.28;;
62362;SDS011;48396;48.426;1.500;2023-06-26T05:02:50;7.32;;;2.05;;
62362;SDS011;48396;48.426;1.500;2023-06-26T05:05:28;5.93;;;2.15;;
62362;SDS011;48396;48.426;1.500;2023-06-26T05:07:54;9.40;;;2.40;;
62362;SDS011;48396;48.426;1.500;2023-06-26T05:10:20;6.18;;;2.00;;
62362;SDS011;48396;48.426;1.500;2023-06-26T05:12:46;8.57;;;2.28;;
62362;SDS011;48396;48.426;1.500;2023-06-26T05:15:12;4.57;;;2.15;;
62362;SDS011;48396;48.426;1.500;2023-06-26T05:17:38;6.05;;;2.42;;
62362;SDS011;48396;48.426;1.500;2023-06-26T05:20:03;9.07;;;2.65;;
62362;SDS011;48396;48.426;1.500;2023-06-26T05:22:30;5.68;;;2.30;;
62362;SDS011;48396;48.426;1.500;2023-06-26T05:24:57;14.80;;;2.83;;
62362;SDS011;48396;48.426;1.500;2023-06-26T05:27:25;8.20;;;2.90;;
62362;SDS011;48396;48.426;1.500;2023-06-26T05:29:51;10.65;;;2.53;;
62362;SDS011;48396;48.426;1.500;2023-06-26T05:32:17;9.68;;;2.70;;
62362;SDS011;48396;48.426;1.500;2023-06-26T05:34:47;8.43;;;2.70;;
62362;SDS011;48396;48.426;1.500;2023-06-26T05:37:18;8.15;;;2.80;;
62362;SDS011;48396;48.426;1.500;2023-06-26T05:39:46;11.35;;;2.92;;
62362;SDS011;48396;48.426;1.500;2023-06-26T05:42:12;10.50;;;2.90;;
62362;SDS011;48396;48.426;1.500;2023-06-26T05:44:38;14.50;;;3.38;;
62362;SDS011;48396;48.426;1.500;2023-06-26T05:47:03;10.38;;;3.03;;
62362;SDS011;48396;48.426;1.500;2023-06-26T05:49:29;7.38;;;2.80;;
62362;SDS011;48396;48.426;1.500;2023-06-26T05:51:55;9.13;;;2.60;;
62362;SDS011;48396;48.426;1.500;2023-06-26T05:54:21;8.85;;;3.05;;
62362;SDS011;48396;48.426;1.500;2023-06-26T05:56:47;14.23;;;3.33;;
62362;SDS011;48396;48.426;1.500;2023-06-26T05:59:14;13.50;;;3.03;;
62362;SDS011;48396;48.426;1.500;2023-06-26T06:01:41;12.55;;;3.10;;
62362;SDS011;48396;48.426;1.500;2023-06-26T06:04:07;8.93;;;2.97;;
62362;SDS011;48396;48.426;1.500;2023-06-26T06:06:32;11.93;;;3.35;;
62362;SDS011;48396;48.426;1.500;2023-06-26T06:08:58;10.82;;;2.90;;
62362;SDS011;48396;48.426;1.500;2023-06-26T06:11:23;12.82;;;3.17;;
62362;SDS011;48396;48.426;1.500;2023-06-26T06:13:49;10.00;;;3.13;;
62362;SDS011;48396;48.426;1.500;2023-06-26T06:16:15;6.88;;;2.60;;
62362;SDS011;48396;48.426;1.500;2023-06-26T06:18:40;8.68;;;2.75;;
62362;SDS011;48396;48.426;1.500;2023-06-26T06:21:06;6.28;;;2.30;;
62362;SDS011;48396;48.426;1.500;2023-06-26T06:23:31;7.30;;;2.30;;
62362;SDS011;48396;48.426;1.500;2023-06-26T06:25:57;7.25;;;2.97;;
62362;SDS011;48396;48.426;1.500;2023-06-26T06:28:22;6.38;;;2.47;;
62362;SDS011;48396;48.426;1.500;2023-06-26T06:30:48;5.78;;;2.65;;
62362;SDS011;48396;48.426;1.500;2023-06-26T06:33:14;6.47;;;2.60;;
62362;SDS011;48396;48.426;1.500;2023-06-26T06:35:39;5.35;;;2.40;;
62362;SDS011;48396;48.426;1.500;2023-06-26T06:38:05;7.38;;;2.80;;
62362;SDS011;48396;48.426;1.500;2023-06-26T06:40:30;8.15;;;2.45;;
62362;SDS011;48396;48.426;1.500;2023-06-26T06:42:56;9.73;;;2.50;;
62362;SDS011;48396;48.426;1.500;2023-06-26T06:45:21;11.25;;;2.75;;
62362;SDS011;48396;48.426;1.500;2023-06-26T06:47:47;9.00;;;2.75;;
62362;SDS011;48396;48.426;1.500;2023-06-26T06:50:13;7.03;;;2.50;;
62362;SDS011;48396;48.426;1.500;2023-06-26T06:52:40;7.88;;;2.60;;
62362;SDS011;48396;48.426;1.500;2023-06-26T06:55:07;7.57;;;2.70;;
62362;SDS011;48396;48.426;1.500;2023-06-26T06:57:38;7.35;;;2.38;;
62362;SDS011;48396;48.426;1.500;2023-06-26T07:00:05;9.20;;;2.57;;
62362;SDS011;48396;48.426;1.500;2023-06-26T07:02:38;6.47;;;2.42;;
62362;SDS011;48396;48.426;1.500;2023-06-26T07:05:05;6.22;;;2.28;;
62362;SDS011;48396;48.426;1.500;2023-06-26T07:07:32;6.10;;;1.98;;
62362;SDS011;48396;48.426;1.500;2023-06-26T07:10:09;5.15;;;2.13;;
62362;SDS011;48396;48.426;1.500;2023-06-26T07:12:38;7.65;;;2.30;;
62362;SDS011;48396;48.426;1.500;2023-06-26T07:15:04;7.10;;;2.25;;
62362;SDS011;48396;48.426;1.500;2023-06-26T07:17:31;8.65;;;2.50;;
62362;SDS011;48396;48.426;1.500;2023-06-26T07:19:57;6.60;;;2.22;;
62362;SDS011;48396;48.426;1.500;2023-06-26T07:22:24;6.20;;;2.10;;
62362;SDS011;48396;48.426;1.500;2023-06-26T07:24:49;5.75;;;2.15;;
62362;SDS011;48396;48.426;1.500;2023-06-26T07:27:15;9.00;;;2.42;;
62362;SDS011;48396;48.426;1.500;2023-06-26T07:29:41;6.15;;;2.28;;
62362;SDS011;48396;48.426;1.500;2023-06-26T07:32:07;5.05;;;2.10;;
62362;SDS011;48396;48.426;1.500;2023-06-26T07:34:33;8.13;;;2.17;;
62362;SDS011;48396;48.426;1.500;2023-06-26T07:36:58;7.05;;;2.22;;
62362;SDS011;48396;48.426;1.500;2023-06-26T07:39:24;4.43;;;2.00;;
62362;SDS011;48396;48.426;1.500;2023-06-26T07:41:50;6.95;;;2.20;;
62362;SDS011;48396;48.426;1.500;2023-06-26T07:44:15;8.30;;;2.40;;
62362;SDS011;48396;48.426;1.500;2023-06-26T07:46:41;4.82;;;2.33;;
62362;SDS011;48396;48.426;1.500;2023-06-26T07:49:06;4.75;;;2.00;;
62362;SDS011;48396;48.426;1.500;2023-06-26T07:51:32;6.28;;;2.47;;
62362;SDS011;48396;48.426;1.500;2023-06-26T07:53:57;8.48;;;2.53;;
62362;SDS011;48396;48.426;1.500;2023-06-26T07:56:23;6.65;;;2.50;;
62362;SDS011;48396;48.426;1.500;2023-06-26T07:58:49;6.82;;;2.50;;
62362;SDS011;48396;48.426;1.500;2023-06-26T08:01:14;4.85;;;2.03;;
62362;SDS011;48396;48.426;1.500;2023-06-26T08:03:40;5.05;;;1.92;;
62362;SDS011;48396;48.426;1.500;2023-06-26T08:06:06;5.90;;;2.00;;
62362;SDS011;48396;48.426;1.500;2023-06-26T08:08:32;6.18;;;2.00;;
62362;SDS011;48396;48.426;1.500;2023-06-26T08:10:57;3.10;;;1.70;;
62362;SDS011;48396;48.426;1.500;2023-06-26T08:13:23;7.93;;;2.35;;
62362;SDS011;48396;48.426;1.500;2023-06-26T08:15:48;6.03;;;1.83;;
62362;SDS011;48396;48.426;1.500;2023-06-26T08:18:14;6.70;;;2.20;;
62362;SDS011;48396;48.426;1.500;2023-06-26T08:20:39;9.07;;;2.22;;
62362;SDS011;48396;48.426;1.500;2023-06-26T08:23:05;8.27;;;2.13;;
62362;SDS011;48396;48.426;1.500;2023-06-26T08:25:31;5.32;;;1.80;;
62362;SDS011;48396;48.426;1.500;2023-06-26T08:27:57;6.93;;;2.10;;
62362;SDS011;48396;48.426;1.500;2023-06-26T08:30:23;8.40;;;1.95;;
62362;SDS011;48396;48.426;1.500;2023-06-26T08:32:52;3.92;;;1.60;;
62362;SDS011;48396;48.426;1.500;2023-06-26T08:35:21;5.43;;;2.08;;
62362;SDS011;48396;48.426;1.500;2023-06-26T08:37:47;7.25;;;1.63;;
62362;SDS011;48396;48.426;1.500;2023-06-26T08:40:12;6.90;;;1.80;;
62362;SDS011;48396;48.426;1.500;2023-06-26T08:42:42;4.90;;;1.60;;
62362;SDS011;48396;48.426;1.500;2023-06-26T08:45:07;5.80;;;1.63;;
62362;SDS011;48396;48.426;1.500;2023-06-26T08:47:33;4.18;;;1.60;;
62362;SDS011;48396;48.426;1.500;2023-06-26T08:50:01;6.78;;;2.33;;
62362;SDS011;48396;48.426;1.500;2023-06-26T08:52:36;7.75;;;2.13;;
62362;SDS011;48396;48.426;1.500;2023-06-26T08:55:08;10.75;;;2.20;;
62362;SDS011;48396;48.426;1.500;2023-06-26T08:57:36;7.50;;;2.22;;
62362;SDS011;48396;48.426;1.500;2023-06-26T09:00:02;8.82;;;1.98;;
62362;SDS011;48396;48.426;1.500;2023-06-26T09:02:29;5.97;;;1.80;;
62362;SDS011;48396;48.426;1.500;2023-06-26T09:04:54;7.88;;;2.22;;
62362;SDS011;48396;48.426;1.500;2023-06-26T09:07:20;10.25;;;2.47;;
62362;SDS011;48396;48.426;1.500;2023-06-26T09:09:46;7.05;;;2.08;;
62362;SDS011;48396;48.426;1.500;2023-06-26T09:12:12;6.53;;;2.10;;
62362;SDS011;48396;48.426;1.500;2023-06-26T09:14:38;6.10;;;1.88;;
62362;SDS011;48396;48.426;1.500;2023-06-26T09:17:04;4.03;;;1.85;;
62362;SDS011;48396;48.426;1.500;2023-06-26T09:19:30;9.70;;;2.60;;
62362;SDS011;48396;48.426;1.500;2023-06-26T09:21:55;7.95;;;2.20;;
62362;SDS011;48396;48.426;1.500;2023-06-26T09:24:22;7.80;;;2.42;;
62362;SDS011;48396;48.426;1.500;2023-06-26T09:26:48;4.32;;;1.90;;
62362;SDS011;48396;48.426;1.500;2023-06-26T09:29:14;6.72;;;2.10;;
62362;SDS011;48396;48.426;1.500;2023-06-26T09:31:42;7.72;;;2.20;;
62362;SDS011;48396;48.426;1.500;2023-06-26T09:34:09;5.13;;;1.90;;
62362;SDS011;48396;48.426;1.500;2023-06-26T09:36:35;6.03;;;2.10;;
62362;SDS011;48396;48.426;1.500;2023-06-26T09:39:03;4.75;;;1.85;;
62362;SDS011;48396;48.426;1.500;2023-06-26T09:41:29;5.50;;;1.75;;
62362;SDS011;48396;48.426;1.500;2023-06-26T09:43:57;4.78;;;1.92;;
62362;SDS011;48396;48.426;1.500;2023-06-26T09:46:26;8.10;;;2.22;;
62362;SDS011;48396;48.426;1.500;2023-06-26T09:49:00;6.43;;;1.90;;
62362;SDS011;48396;48.426;1.500;2023-06-26T09:51:32;7.32;;;2.30;;
62362;SDS011;48396;48.426;1.500;2023-06-26T09:53:59;7.95;;;1.92;;
62362;SDS011;48396;48.426;1.500;2023-06-26T09:56:26;6.00;;;2.00;;
62362;SDS011;48396;48.426;1.500;2023-06-26T09:58:55;7.47;;;2.00;;
62362;SDS011;48396;48.426;1.500;2023-06-26T10:01:22;4.05;;;2.10;;
62362;SDS011;48396;48.426;1.500;2023-06-26T10:03:48;5.88;;;2.08;;
62362;SDS011;48396;48.426;1.500;2023-06-26T10:06:14;7.90;;;2.50;;
62362;SDS011;48396;48.426;1.500;2023-06-26T10:08:43;7.13;;;2.17;;
62362;SDS011;48396;48.426;1.500;2023-06-26T10:11:11;6.18;;;2.10;;
62362;SDS011;48396;48.426;1.500;2023-06-26T10:13:39;7.05;;;2.13;;
62362;SDS011;48396;48.426;1.500;2023-06-26T10:16:11;9.07;;;2.60;;
62362;SDS011;48396;48.426;1.500;2023-06-26T10:18:38;8.50;;;2.15;;
62362;SDS011;48396;48.426;1.500;2023-06-26T10:21:05;5.13;;;2.20;;
62362;SDS011;48396;48.426;1.500;2023-06-26T10:23:33;6.68;;;2.03;;
62362;SDS011;48396;48.426;1.500;2023-06-26T10:26:01;4.88;;;2.38;;
62362;SDS011;48396;48.426;1.500;2023-06-26T10:28:30;7.72;;;2.38;;
62362;SDS011;48396;48.426;1.500;2023-06-26T10:30:58;4.60;;;1.83;;
62362;SDS011;48396;48.426;1.500;2023-06-26T10:33:27;5.78;;;2.08;;
62362;SDS011;48396;48.426;1.500;2023-06-26T10:35:54;4.72;;;2.00;;
62362;SDS011;48396;48.426;1.500;2023-06-26T10:38:48;8.80;;;2.35;;
62362;SDS011;48396;48.426;1.500;2023-06-26T10:41:15;5.85;;;1.67;;
62362;SDS011;48396;48.426;1.500;2023-06-26T10:43:45;7.43;;;2.33;;
62362;SDS011;48396;48.426;1.500;2023-06-26T10:46:47;7.57;;;2.20;;
62362;SDS011;48396;48.426;1.500;2023-06-26T10:49:13;6.70;;;2.20;;
62362;SDS011;48396;48.426;1.500;2023-06-26T10:51:39;6.57;;;2.30;;
62362;SDS011;48396;48.426;1.500;2023-06-26T10:54:30;6.07;;;2.03;;
62362;SDS011;48396;48.426;1.500;2023-06-26T10:56:56;6.35;;;1.83;;
62362;SDS011;48396;48.426;1.500;2023-06-26T10:59:23;8.32;;;1.85;;
62362;SDS011;48396;48.426;1.500;2023-06-26T11:01:54;6.90;;;1.85;;
62362;SDS011;48396;48.426;1.500;2023-06-26T11:04:35;8.30;;;1.92;;
62362;SDS011;48396;48.426;1.500;2023-06-26T11:07:17;5.25;;;1.95;;
62362;SDS011;48396;48.426;1.500;2023-06-26T11:17:38;6.45;;;1.98;;
62362;SDS011;48396;48.426;1.500;2023-06-26T11:20:11;5.47;;;2.10;;
62362;SDS011;48396;48.426;1.500;2023-06-26T11:22:39;4.25;;;1.50;;
62362;SDS011;48396;48.426;1.500;2023-06-26T11:25:06;5.43;;;1.80;;
62362;SDS011;48396;48.426;1.500;2023-06-26T11:27:42;5.72;;;1.80;;
62362;SDS011;48396;48.426;1.500;2023-06-26T11:30:09;7.20;;;1.80;;
62362;SDS011;48396;48.426;1.500;2023-06-26T11:32:38;7.75;;;1.90;;
62362;SDS011;48396;48.426;1.500;2023-06-26T11:35:04;3.70;;;1.70;;
62362;SDS011;48396;48.426;1.500;2023-06-26T11:37:34;2.35;;;1.20;;
62362;SDS011;48396;48.426;1.500;2023-06-26T11:39:59;6.15;;;1.80;;
62362;SDS011;48396;48.426;1.500;2023-06-26T11:42:40;3.58;;;1.40;;
62362;SDS011;48396;48.426;1.500;2023-06-26T11:45:06;4.70;;;1.40;;
62362;SDS011;48396;48.426;1.500;2023-06-26T11:47:32;6.03;;;1.52;;
62362;SDS011;48396;48.426;1.500;2023-06-26T11:49:58;3.35;;;1.38;;
62362;SDS011;48396;48.426;1.500;2023-06-26T11:52:24;2.92;;;1.55;;
62362;SDS011;48396;48.426;1.500;2023-06-26T11:54:49;3.85;;;1.70;;
62362;SDS011;48396;48.426;1.500;2023-06-26T11:57:15;5.65;;;1.58;;
62362;SDS011;48396;48.426;1.500;2023-06-26T11:59:40;6.20;;;1.70;;
62362;SDS011;48396;48.426;1.500;2023-06-26T12:02:07;4.22;;;1.75;;
62362;SDS011;48396;48.426;1.500;2023-06-26T12:04:35;4.38;;;1.60;;
62362;SDS011;48396;48.426;1.500;2023-06-26T12:07:06;5.20;;;1.58;;
62362;SDS011;48396;48.426;1.500;2023-06-26T12:09:34;2.55;;;1.33;;
62362;SDS011;48396;48.426;1.500;2023-06-26T12:12:07;5.72;;;1.60;;
62362;SDS011;48396;48.426;1.500;2023-06-26T12:14:33;7.68;;;1.95;;
62362;SDS011;48396;48.426;1.500;2023-06-26T12:17:08;4.47;;;1.80;;
62362;SDS011;48396;48.426;1.500;2023-06-26T12:19:36;5.60;;;1.75;;
62362;SDS011;48396;48.426;1.500;2023-06-26T12:22:05;4.72;;;1.63;;
62362;SDS011;48396;48.426;1.500;2023-06-26T12:24:34;3.90;;;1.63;;
62362;SDS011;48396;48.426;1.500;2023-06-26T12:27:02;4.28;;;1.50;;
62362;SDS011;48396;48.426;1.500;2023-06-26T12:29:32;7.25;;;2.17;;
62362;SDS011;48396;48.426;1.500;2023-06-26T12:31:58;3.95;;;1.65;;
62362;SDS011;48396;48.426;1.500;2023-06-26T12:34:33;5.47;;;1.85;;
62362;SDS011;48396;48.426;1.500;2023-06-26T12:37:01;6.75;;;1.70;;
62362;SDS011;48396;48.426;1.500;2023-06-26T12:39:29;6.25;;;2.00;;
62362;SDS011;48396;48.426;1.500;2023-06-26T12:42:09;9.45;;;1.95;;
62362;SDS011;48396;48.426;1.500;2023-06-26T12:44:39;5.03;;;1.75;;
62362;SDS011;48396;48.426;1.500;2023-06-26T12:47:05;6.53;;;1.92;;
62362;SDS011;48396;48.426;1.500;2023-06-26T12:49:39;6.20;;;1.70;;
62362;SDS011;48396;48.426;1.500;2023-06-26T12:52:07;3.28;;;1.40;;
62362;SDS011;48396;48.426;1.500;2023-06-26T12:54:34;4.30;;;1.63;;
62362;SDS011;48396;48.426;1.500;2023-06-26T12:57:01;6.50;;;1.70;;
62362;SDS011;48396;48.426;1.500;2023-06-26T12:59:29;2.40;;;1.42;;
62362;SDS011;48396;48.426;1.500;2023-06-26T13:01:55;4.50;;;1.80;;
62362;SDS011;48396;48.426;1.500;2023-06-26T13:04:21;5.20;;;1.45;;
62362;SDS011;48396;48.426;1.500;2023-06-26T13:09:32;4.05;;;1.15;;
62362;SDS011;48396;48.426;1.500;2023-06-26T13:11:59;6.45;;;1.92;;
62362;SDS011;48396;48.426;1.500;2023-06-26T13:14:25;7.45;;;2.22;;
62362;SDS011;48396;48.426;1.500;2023-06-26T13:16:51;3.08;;;1.63;;
62362;SDS011;48396;48.426;1.500;2023-06-26T13:19:16;5.18;;;1.70;;
62362;SDS011;48396;48.426;1.500;2023-06-26T13:21:42;4.65;;;1.88;;
62362;SDS011;48396;48.426;1.500;2023-06-26T13:24:08;7.03;;;1.67;;
62362;SDS011;48396;48.426;1.500;2023-06-26T13:26:34;4.40;;;1.70;;
62362;SDS011;48396;48.426;1.500;2023-06-26T13:29:00;4.75;;;1.80;;
62362;SDS011;48396;48.426;1.500;2023-06-26T13:31:26;6.63;;;2.28;;
62362;SDS011;48396;48.426;1.500;2023-06-26T13:33:51;9.07;;;1.85;;
62362;SDS011;48396;48.426;1.500;2023-06-26T13:36:17;5.13;;;2.30;;
62362;SDS011;48396;48.426;1.500;2023-06-26T13:38:44;7.03;;;1.92;;
62362;SDS011;48396;48.426;1.500;2023-06-26T13:41:10;4.60;;;1.90;;
62362;SDS011;48396;48.426;1.500;2023-06-26T13:43:36;4.68;;;1.50;;
62362;SDS011;48396;48.426;1.500;2023-06-26T13:46:02;2.55;;;1.25;;
62362;SDS011;48396;48.426;1.500;2023-06-26T13:48:28;3.67;;;1.40;;
62362;SDS011;48396;48.426;1.500;2023-06-26T13:50:54;4.82;;;1.70;;
62362;SDS011;48396;48.426;1.500;2023-06-26T13:53:21;2.97;;;1.45;;
62362;SDS011;48396;48.426;1.500;2023-06-26T13:55:47;8.93;;;1.80;;
62362;SDS011;48396;48.426;1.500;2023-06-26T13:58:13;8.20;;;1.77;;
62362;SDS011;48396;48.426;1.500;2023-06-26T14:00:39;3.70;;;1.52;;
62362;SDS011;48396;48.426;1.500;2023-06-26T14:03:06;6.40;;;1.95;;
62362;SDS011;48396;48.426;1.500;2023-06-26T14:05:32;5.57;;;1.85;;
62362;SDS011;48396;48.426;1.500;2023-06-26T14:07:58;4.93;;;1.35;;
62362;SDS011;48396;48.426;1.500;2023-06-26T14:10:24;3.67;;;1.58;;
62362;SDS011;48396;48.426;1.500;2023-06-26T14:12:50;5.40;;;1.80;;
62362;SDS011;48396;48.426;1.500;2023-06-26T14:15:16;6.57;;;1.73;;
62362;SDS011;48396;48.426;1.500;2023-06-26T14:17:41;5.55;;;1.92;;
62362;SDS011;48396;48.426;1.500;2023-06-26T14:20:08;6.07;;;1.90;;
62362;SDS011;48396;48.426;1.500;2023-06-26T14:22:37;4.70;;;1.83;;
62362;SDS011;48396;48.426;1.500;2023-06-26T14:25:03;5.38;;;2.03;;
62362;SDS011;48396;48.426;1.500;2023-06-26T14:27:29;2.75;;;1.10;;
62362;SDS011;48396;48.426;1.500;2023-06-26T14:29:55;4.43;;;1.63;;
62362;SDS011;48396;48.426;1.500;2023-06-26T14:32:20;4.88;;;1.77;;
62362;SDS011;48396;48.426;1.500;2023-06-26T14:34:46;6.45;;;1.90;;
62362;SDS011;48396;48.426;1.500;2023-06-26T14:37:12;4.35;;;1.60;;
62362;SDS011;48396;48.426;1.500;2023-06-26T14:39:37;6.85;;;1.67;;
62362;SDS011;48396;48.426;1.500;2023-06-26T14:42:03;4.80;;;1.40;;
62362;SDS011;48396;48.426;1.500;2023-06-26T14:44:30;2.92;;;1.35;;
62362;SDS011;48396;48.426;1.500;2023-06-26T14:46:55;4.30;;;1.63;;
62362;SDS011;48396;48.426;1.500;2023-06-26T14:49:21;4.45;;;1.60;;
62362;SDS011;48396;48.426;1.500;2023-06-26T14:51:46;3.88;;;1.50;;
62362;SDS011;48396;48.426;1.500;2023-06-26T14:54:12;5.57;;;1.90;;
62362;SDS011;48396;48.426;1.500;2023-06-26T14:56:38;4.75;;;1.63;;
62362;SDS011;48396;48.426;1.500;2023-06-26T14:59:04;7.68;;;2.10;;
62362;SDS011;48396;48.426;1.500;2023-06-26T15:01:32;6.47;;;1.92;;
62362;SDS011;48396;48.426;1.500;2023-06-26T15:03:58;5.20;;;1.80;;
62362;SDS011;48396;48.426;1.500;2023-06-26T15:06:23;5.75;;;1.58;;
62362;SDS011;48396;48.426;1.500;2023-06-26T15:08:49;4.68;;;1.50;;